createdAt,value
2023-02-11T00:01:44.065Z,13.68
2023-02-11T00:04:12.285Z,14.20
2023-02-11T00:06:40.835Z,13.93
2023-02-11T00:09:08.633Z,14.55
2023-02-11T00:11:37.116Z,13.68
2023-02-11T00:14:08.113Z,14.98
2023-02-11T00:16:36.685Z,13.68
2023-02-11T00:19:06.668Z,14.13
2023-02-11T00:21:35.488Z,13.68
2023-02-11T00:24:03.746Z,13.88
2023-02-11T00:26:34.830Z,14.27
2023-02-11T00:29:04.345Z,14.60
2023-02-11T00:31:33.489Z,14.35
2023-02-11T00:34:01.521Z,13.55
2023-02-11T00:36:30.551Z,14.48
2023-02-11T00:38:59.657Z,14.55
2023-02-11T00:41:29.746Z,13.95
2023-02-11T00:44:00.860Z,13.70
2023-02-11T00:46:29.943Z,14.45
2023-02-11T00:48:58.173Z,14.80
2023-02-11T00:51:27.465Z,15.02
2023-02-11T00:53:55.434Z,14.82
2023-02-11T00:56:24.727Z,15.05
2023-02-11T00:58:53.666Z,14.80
2023-02-11T01:01:21.873Z,15.93
2023-02-11T01:03:50.029Z,15.27
2023-02-11T01:06:19.264Z,15.10
2023-02-11T01:08:47.282Z,14.65
2023-02-11T01:11:21.329Z,15.43
2023-02-11T01:13:50.330Z,15.13
2023-02-11T01:16:19.536Z,14.57
2023-02-11T01:18:47.590Z,15.88
2023-02-11T01:21:18.729Z,15.93
2023-02-11T01:23:46.811Z,15.40
2023-02-11T01:26:14.946Z,15.40
2023-02-11T01:28:42.976Z,16.05
2023-02-11T01:31:11.517Z,16.08
2023-02-11T01:33:39.372Z,15.63
2023-02-11T01:36:08.177Z,16.90
2023-02-11T01:38:36.892Z,16.13
2023-02-11T01:41:09.323Z,15.88
2023-02-11T01:43:43.572Z,15.52
2023-02-11T01:46:36.318Z,16.15
2023-02-11T01:49:12.824Z,16.80
2023-02-11T01:51:44.260Z,17.48
2023-02-11T01:54:35.713Z,17.02
2023-02-11T01:57:25.446Z,16.90
2023-02-11T02:00:12.816Z,16.05
2023-02-11T02:02:51.307Z,16.23
2023-02-11T02:05:25.309Z,16.58
2023-02-11T02:08:16.668Z,16.40
2023-02-11T02:10:47.689Z,16.27
2023-02-11T02:13:17.964Z,16.45
2023-02-11T02:16:03.729Z,16.63
2023-02-11T02:18:51.531Z,15.85
2023-02-11T02:21:59.591Z,16.35
2023-02-11T02:24:52.016Z,16.13
2023-02-11T02:27:42.330Z,17.10
2023-02-11T02:30:20.902Z,16.85
2023-02-11T02:33:22.350Z,17.63
2023-02-11T02:36:04.474Z,17.08
2023-02-11T02:38:54.959Z,16.85
2023-02-11T02:41:32.851Z,16.50
2023-02-11T02:44:01.033Z,16.90
2023-02-11T02:46:33.009Z,16.33
2023-02-11T02:49:02.037Z,16.35
2023-02-11T02:51:51.976Z,16.33
2023-02-11T02:54:36.155Z,15.25
2023-02-11T02:57:07.274Z,15.98
2023-02-11T03:00:13.547Z,16.38
2023-02-11T03:03:02.862Z,16.58
2023-02-11T03:05:58.762Z,16.23
2023-02-11T03:09:05.807Z,16.25
2023-02-11T03:11:36.094Z,15.82
2023-02-11T03:14:08.386Z,16.17
2023-02-11T03:16:39.578Z,16.30
2023-02-11T03:19:21.205Z,16.75
2023-02-11T03:21:52.097Z,16.13
2023-02-11T03:24:33.481Z,16.00
2023-02-11T03:27:09.691Z,15.95
2023-02-11T03:29:45.036Z,15.38
2023-02-11T03:32:17.270Z,15.10
2023-02-11T03:34:48.125Z,15.48
2023-02-11T03:37:45.742Z,16.35
2023-02-11T03:40:19.436Z,16.42
2023-02-11T03:43:01.321Z,16.42
2023-02-11T03:45:30.796Z,15.05
2023-02-11T03:48:04.317Z,15.95
2023-02-11T03:50:35.547Z,14.35
2023-02-11T03:53:05.160Z,16.05
2023-02-11T03:55:38.155Z,15.55
2023-02-11T03:58:07.292Z,15.35
2023-02-11T04:00:39.967Z,15.27
2023-02-11T04:03:09.398Z,17.73
2023-02-11T04:05:38.525Z,16.48
2023-02-11T04:08:06.929Z,16.95
2023-02-11T04:10:35.404Z,15.95
2023-02-11T04:13:03.596Z,15.63
2023-02-11T04:15:31.770Z,16.30
2023-02-11T04:17:59.510Z,17.17
2023-02-11T04:20:28.000Z,15.75
2023-02-11T04:22:55.831Z,16.48
2023-02-11T04:25:24.172Z,16.25
2023-02-11T04:27:53.027Z,16.10
2023-02-11T04:30:21.309Z,16.33
2023-02-11T04:32:49.141Z,16.38
2023-02-11T04:35:17.387Z,16.50
2023-02-11T04:37:45.611Z,17.65
2023-02-11T04:40:13.876Z,17.35
2023-02-11T04:42:41.754Z,16.15
2023-02-11T04:45:11.293Z,17.55
2023-02-11T04:47:39.115Z,16.73
2023-02-11T04:50:07.306Z,17.70
2023-02-11T04:52:35.117Z,16.83
2023-02-11T04:55:03.328Z,16.40
2023-02-11T04:57:31.112Z,16.85
2023-02-11T04:59:59.334Z,17.52
2023-02-11T05:02:27.228Z,16.58
2023-02-11T05:04:55.352Z,16.88
2023-02-11T05:07:23.553Z,17.80
2023-02-11T05:09:51.640Z,17.38
2023-02-11T05:12:19.629Z,17.88
2023-02-11T05:14:47.949Z,17.67
2023-02-11T05:17:15.845Z,16.13
2023-02-11T05:19:44.019Z,16.42
2023-02-11T05:22:12.487Z,17.27
2023-02-11T05:24:40.601Z,17.35
2023-02-11T05:27:08.336Z,17.20
2023-02-11T05:29:36.611Z,19.10
2023-02-11T05:32:04.559Z,18.65
2023-02-11T05:34:32.832Z,18.88
2023-02-11T05:37:01.247Z,19.40
2023-02-11T05:39:29.463Z,19.70
2023-02-11T05:41:57.370Z,21.10
2023-02-11T05:44:25.651Z,19.00
2023-02-11T05:46:53.423Z,18.48
2023-02-11T05:49:21.747Z,19.45
2023-02-11T05:51:49.946Z,18.40
2023-02-11T05:54:18.186Z,17.77
2023-02-11T05:56:45.998Z,17.67
2023-02-11T05:59:15.841Z,17.88
2023-02-11T06:01:43.960Z,17.40
2023-02-11T06:04:12.120Z,17.90
2023-02-11T06:06:39.921Z,15.90
2023-02-11T06:09:08.114Z,18.40
2023-02-11T06:11:35.841Z,17.65
2023-02-11T06:14:04.476Z,18.90
2023-02-11T06:16:32.524Z,19.02
2023-02-11T06:19:01.052Z,17.92
2023-02-11T06:21:43.005Z,17.75
2023-02-11T06:24:12.758Z,17.48
2023-02-11T06:26:40.829Z,17.45
2023-02-11T06:29:09.358Z,17.08
2023-02-11T06:31:39.383Z,17.48
2023-02-11T06:34:09.751Z,17.83
2023-02-11T06:36:40.744Z,16.73
2023-02-11T06:39:08.940Z,17.30
2023-02-11T06:41:36.936Z,16.80
2023-02-11T06:44:05.264Z,16.63
2023-02-11T06:46:33.057Z,17.55
2023-02-11T06:49:01.410Z,17.05
2023-02-11T06:51:29.327Z,17.30
2023-02-11T06:53:57.446Z,16.98
2023-02-11T06:56:27.858Z,16.45
2023-02-11T06:58:56.675Z,17.63
2023-02-11T07:01:26.169Z,15.45
2023-02-11T07:03:55.241Z,15.85
2023-02-11T07:06:28.080Z,16.67
2023-02-11T07:08:56.649Z,17.80
2023-02-11T07:11:27.310Z,17.15
2023-02-11T07:14:00.603Z,17.40
2023-02-11T07:16:28.606Z,17.52
2023-02-11T07:18:56.906Z,18.45
2023-02-11T07:21:25.180Z,17.75
2023-02-11T07:23:53.821Z,17.45
2023-02-11T07:26:24.521Z,17.40
2023-02-11T07:28:53.295Z,17.30
2023-02-11T07:31:25.963Z,17.55
2023-02-11T07:33:57.554Z,17.05
2023-02-11T07:36:26.279Z,16.60
2023-02-11T07:38:54.666Z,16.67
2023-02-11T07:41:23.789Z,17.25
2023-02-11T07:43:52.864Z,17.85
2023-02-11T07:46:26.541Z,16.98
2023-02-11T07:48:55.453Z,17.67
2023-02-11T07:51:26.159Z,18.30
2023-02-11T07:53:55.919Z,16.67
2023-02-11T07:56:24.497Z,17.00
2023-02-11T07:58:52.770Z,17.10
2023-02-11T08:01:25.633Z,15.98
2023-02-11T08:03:58.248Z,17.85
2023-02-11T08:06:29.357Z,16.92
2023-02-11T08:08:59.709Z,16.65
2023-02-11T08:11:29.309Z,15.52
2023-02-11T08:13:57.876Z,15.63
2023-02-11T08:16:29.120Z,14.25
2023-02-11T08:18:59.675Z,13.13
2023-02-11T08:21:28.959Z,13.82
2023-02-11T08:23:57.372Z,14.60
2023-02-11T08:26:29.155Z,14.35
2023-02-11T08:28:58.629Z,12.48
2023-02-11T08:31:29.707Z,8.23
2023-02-11T08:34:02.624Z,6.35
2023-02-11T08:36:36.544Z,9.15
2023-02-11T08:39:18.491Z,9.13
2023-02-11T08:41:49.809Z,11.77
2023-02-11T08:44:19.933Z,11.00
2023-02-11T08:46:48.530Z,10.40
2023-02-11T08:49:16.836Z,12.30
2023-02-11T08:51:45.486Z,12.10
2023-02-11T08:54:14.562Z,12.38
2023-02-11T08:56:43.068Z,11.95
2023-02-11T08:59:15.367Z,12.52
2023-02-11T09:01:44.657Z,13.15
2023-02-11T09:04:13.409Z,13.77
2023-02-11T09:06:41.906Z,12.15
2023-02-11T09:09:13.791Z,12.52
2023-02-11T09:11:43.351Z,12.70
2023-02-11T09:14:20.917Z,12.05
2023-02-11T09:16:49.418Z,11.10
2023-02-11T09:19:18.555Z,11.85
2023-02-11T09:21:47.299Z,12.57
2023-02-11T09:24:15.809Z,12.50
2023-02-11T09:26:45.192Z,12.57
2023-02-11T09:29:13.666Z,11.40
2023-02-11T09:31:41.679Z,11.05
2023-02-11T09:34:11.979Z,11.32
2023-02-11T09:36:42.991Z,11.65
2023-02-11T09:39:17.379Z,10.80
2023-02-11T09:42:11.285Z,11.85
2023-02-11T09:44:44.506Z,11.02
2023-02-11T09:47:36.329Z,12.55
2023-02-11T09:50:12.729Z,11.60
2023-02-11T09:53:01.803Z,10.40
2023-02-11T09:55:48.637Z,10.00
2023-02-11T09:58:26.820Z,11.30
2023-02-11T10:01:09.427Z,11.13
2023-02-11T10:04:00.863Z,10.95
2023-02-11T10:06:52.391Z,11.70
2023-02-11T10:09:38.183Z,11.48
2023-02-11T10:12:38.337Z,10.17
2023-02-11T10:15:37.745Z,10.80
2023-02-11T10:18:36.587Z,10.50
2023-02-11T10:21:28.831Z,11.10
2023-02-11T10:24:03.852Z,12.02
2023-02-11T10:26:33.758Z,11.98
2023-02-11T10:29:12.645Z,11.00
2023-02-11T10:31:45.390Z,11.40
2023-02-11T10:34:15.101Z,11.50
2023-02-11T10:36:45.137Z,11.13
2023-02-11T10:39:20.723Z,12.10
2023-02-11T10:41:56.862Z,11.33
2023-02-11T10:47:21.124Z,10.95
2023-02-11T10:49:49.991Z,18.23
2023-02-11T10:52:27.377Z,13.02
2023-02-11T10:55:04.798Z,14.27
2023-02-11T10:57:37.999Z,11.43
2023-02-11T11:00:18.582Z,12.00
2023-02-11T11:02:52.840Z,14.15
2023-02-11T11:05:29.341Z,11.95
2023-02-11T11:08:00.405Z,11.27
2023-02-11T11:11:04.020Z,11.75
2023-02-11T11:13:35.785Z,11.55
2023-02-11T11:16:18.252Z,12.13
2023-02-11T11:18:48.831Z,11.35
2023-02-11T11:21:35.655Z,11.75
2023-02-11T11:24:04.593Z,11.80
2023-02-11T11:26:47.093Z,12.27
2023-02-11T11:29:19.811Z,12.07
2023-02-11T11:31:51.094Z,12.02
2023-02-11T11:34:38.489Z,12.00
2023-02-11T13:02:00.939Z,11.68
2023-02-11T13:04:43.651Z,12.35
2023-02-11T13:07:20.621Z,11.95
2023-02-11T13:11:44.945Z,12.35
2023-02-11T13:14:22.553Z,12.95
2023-02-11T13:16:51.991Z,12.52
2023-02-11T13:19:39.012Z,11.80
2023-02-11T13:22:32.996Z,12.73
2023-02-11T13:25:36.557Z,12.10
2023-02-11T13:28:37.247Z,12.00
2023-02-11T13:31:08.114Z,12.63
2023-02-11T13:33:43.678Z,12.48
2023-02-11T13:36:18.213Z,13.00
2023-02-11T13:38:55.072Z,12.43
2023-02-11T13:41:31.239Z,12.75
2023-02-11T13:44:04.053Z,12.95
2023-02-11T13:46:56.058Z,13.27
2023-02-11T13:49:26.050Z,13.65
2023-02-11T13:51:56.180Z,13.88
2023-02-11T13:54:39.479Z,14.07
2023-02-11T13:57:28.151Z,15.20
2023-02-11T14:00:02.607Z,14.82
2023-02-11T14:02:55.681Z,14.00
2023-02-11T14:05:49.092Z,14.23
2023-02-11T14:08:41.994Z,15.45
2023-02-11T14:11:29.948Z,15.95
2023-02-11T14:14:15.582Z,14.10
2023-02-11T14:17:09.492Z,14.82
2023-02-11T14:19:46.449Z,15.60
2023-02-11T14:22:24.634Z,15.93
2023-02-11T14:25:00.326Z,14.93
2023-02-11T14:27:35.076Z,16.20
2023-02-11T14:30:25.851Z,19.98
2023-02-11T14:33:10.532Z,30.02
2023-02-11T14:36:05.973Z,16.73
2023-02-11T14:39:02.825Z,16.50
2023-02-11T14:41:35.359Z,16.02
2023-02-11T14:44:21.586Z,14.20
2023-02-11T14:46:53.717Z,14.68
2023-02-11T14:49:26.087Z,14.20
2023-02-11T14:52:06.674Z,13.68
2023-02-11T14:54:36.158Z,13.30
2023-02-11T14:57:16.780Z,14.35
2023-02-11T15:00:05.961Z,13.07
2023-02-11T15:02:38.862Z,13.55
2023-02-11T15:05:26.410Z,12.23
2023-02-11T15:08:07.866Z,13.45
2023-02-11T15:10:42.981Z,12.88
2023-02-11T15:13:19.265Z,12.38
2023-02-11T15:15:48.808Z,13.05
2023-02-11T15:18:23.025Z,12.43
2023-02-11T15:20:52.671Z,12.30
2023-02-11T15:23:27.489Z,11.65
2023-02-11T15:25:58.462Z,11.73
2023-02-11T15:28:30.416Z,12.13
2023-02-11T15:31:14.134Z,12.23
2023-02-11T15:33:42.545Z,12.38
2023-02-11T15:36:13.089Z,12.55
2023-02-11T15:38:41.823Z,13.32
2023-02-11T15:41:38.824Z,12.15
2023-02-11T15:44:27.212Z,12.52
2023-02-11T15:46:55.818Z,13.40
2023-02-11T15:49:25.532Z,13.15
2023-02-11T15:51:55.698Z,13.23
2023-02-11T15:54:29.646Z,12.18
2023-02-11T15:57:05.228Z,13.52
2023-02-11T15:59:53.522Z,13.63
2023-02-11T16:02:45.467Z,13.27
2023-02-11T16:05:32.902Z,13.98
2023-02-11T16:08:12.964Z,13.80
2023-02-11T16:10:55.058Z,12.88
2023-02-11T16:13:24.715Z,13.07
2023-02-11T16:16:04.221Z,13.88
2023-02-11T16:18:40.290Z,12.95
2023-02-11T16:21:18.202Z,14.00
2023-02-11T16:23:56.193Z,14.10
2023-02-11T16:26:39.659Z,13.55
2023-02-11T16:29:10.603Z,13.02
2023-02-11T16:31:42.613Z,12.88
2023-02-11T16:34:28.861Z,12.93
2023-02-11T16:36:57.005Z,12.98
2023-02-11T16:39:25.017Z,13.60
2023-02-11T16:41:53.206Z,13.75
2023-02-11T16:44:21.319Z,13.70
2023-02-11T16:46:49.710Z,15.27
2023-02-11T16:49:25.186Z,15.18
2023-02-11T16:51:57.136Z,14.15
2023-02-11T16:54:25.279Z,13.80
2023-02-11T16:56:53.485Z,15.23
2023-02-11T16:59:21.424Z,15.63
2023-02-11T17:01:52.220Z,16.27
2023-02-11T17:04:26.323Z,16.17
2023-02-11T17:06:57.199Z,17.15
2023-02-11T17:09:30.637Z,15.63
2023-02-11T17:11:59.591Z,17.13
2023-02-11T17:14:27.668Z,16.33
2023-02-11T17:16:55.813Z,17.15
2023-02-11T17:19:24.270Z,15.80
2023-02-11T17:21:53.647Z,16.33
2023-02-11T17:24:22.446Z,15.68
2023-02-11T17:26:50.775Z,16.40
2023-02-11T17:29:22.518Z,16.65
2023-02-11T17:31:52.257Z,15.98
2023-02-11T17:34:22.508Z,15.88
2023-02-11T17:36:51.070Z,16.65
2023-02-11T17:39:21.342Z,17.35
2023-02-11T17:41:49.682Z,15.98
2023-02-11T17:44:17.813Z,15.48
2023-02-11T17:46:46.142Z,15.98
2023-02-11T17:49:13.904Z,16.10
2023-02-11T17:51:42.327Z,15.82
2023-02-11T17:54:17.192Z,16.13
2023-02-11T17:56:46.273Z,15.70
2023-02-11T17:59:14.700Z,15.88
2023-02-11T18:01:45.341Z,16.52
2023-02-11T18:04:15.619Z,16.27
2023-02-11T18:06:44.370Z,16.77
2023-02-11T18:09:12.415Z,16.38
2023-02-11T18:11:41.830Z,17.40
2023-02-11T18:14:11.894Z,16.10
2023-02-11T18:16:43.539Z,18.42
2023-02-11T18:19:12.510Z,17.10
2023-02-11T18:21:40.934Z,19.35
2023-02-11T18:24:09.341Z,19.42
2023-02-11T18:26:38.013Z,19.35
2023-02-11T18:29:07.244Z,18.60
2023-02-11T18:31:36.915Z,19.50
2023-02-11T18:34:07.789Z,20.10
2023-02-11T18:36:36.744Z,19.77
2023-02-11T18:39:06.018Z,19.77
2023-02-11T18:41:35.077Z,19.75
2023-02-11T18:44:04.898Z,18.83
2023-02-11T18:46:33.602Z,19.08
2023-02-11T18:49:01.786Z,18.90
2023-02-11T18:51:32.689Z,19.48
2023-02-11T18:54:01.742Z,18.80
2023-02-11T18:56:30.172Z,20.30
2023-02-11T18:59:01.501Z,19.98
2023-02-11T19:01:31.507Z,18.15
2023-02-11T19:04:03.232Z,19.25
2023-02-11T19:06:35.019Z,18.13
2023-02-11T19:09:10.641Z,18.90
2023-02-11T19:11:54.591Z,19.13
2023-02-11T19:14:31.987Z,18.02
2023-02-11T19:17:04.716Z,17.40
2023-02-11T19:19:36.077Z,18.10
2023-02-11T19:22:09.994Z,18.27
2023-02-11T19:24:39.492Z,17.10
2023-02-11T19:27:08.023Z,18.00
2023-02-11T19:29:36.137Z,16.48
2023-02-11T19:32:06.490Z,17.20
2023-02-11T19:34:41.436Z,17.27
2023-02-11T19:37:13.024Z,19.73
2023-02-11T19:39:42.802Z,19.60
2023-02-11T19:42:12.469Z,29.63
2023-02-11T19:44:40.556Z,26.08
2023-02-11T19:47:10.580Z,22.13
2023-02-11T19:49:39.024Z,21.80
2023-02-11T19:52:07.203Z,24.05
2023-02-11T19:54:35.264Z,23.17
2023-02-11T19:57:03.937Z,21.83
2023-02-11T19:59:32.357Z,21.15
2023-02-11T20:02:01.739Z,21.13
2023-02-11T20:04:32.402Z,21.30
2023-02-11T20:07:00.920Z,20.30
2023-02-11T20:09:31.354Z,19.85
2023-02-11T20:12:00.665Z,18.65
2023-02-11T20:14:28.495Z,18.33
2023-02-11T20:16:56.798Z,18.90
2023-02-11T20:19:26.166Z,17.65
2023-02-11T20:21:57.035Z,17.20
2023-02-11T20:24:27.112Z,17.35
2023-02-11T20:26:57.056Z,19.05
2023-02-11T20:29:32.293Z,17.38
2023-02-11T20:32:03.276Z,17.87
2023-02-11T20:34:31.228Z,17.25
2023-02-11T20:36:59.746Z,18.92
2023-02-11T20:39:27.928Z,17.08
2023-02-11T20:41:57.789Z,18.67
2023-02-11T20:44:25.708Z,18.65
2023-02-11T20:46:56.980Z,19.55
2023-02-11T20:49:25.371Z,18.17
2023-02-11T20:51:54.447Z,17.75
2023-02-11T20:54:24.933Z,17.55
2023-02-11T20:56:54.152Z,17.83
2023-02-11T20:59:22.072Z,17.20
2023-02-11T21:01:54.356Z,17.75
2023-02-11T21:04:25.554Z,17.33
2023-02-11T21:06:57.274Z,16.67
2023-02-11T21:09:28.347Z,16.98
2023-02-11T21:11:57.775Z,16.48
2023-02-11T21:14:27.045Z,16.33
2023-02-11T21:16:56.504Z,16.90
2023-02-11T21:19:24.733Z,17.00
2023-02-11T21:21:53.379Z,16.30
2023-02-11T21:24:21.370Z,17.23
2023-02-11T21:26:49.732Z,16.73
2023-02-11T21:29:17.549Z,17.17
2023-02-11T21:31:45.793Z,16.73
2023-02-11T21:34:14.566Z,17.75
2023-02-11T21:36:43.026Z,17.65
2023-02-11T21:39:11.052Z,17.13
2023-02-11T21:41:39.576Z,16.38
2023-02-11T21:44:07.404Z,17.95
2023-02-11T21:46:35.913Z,16.77
2023-02-11T21:49:03.860Z,16.40
2023-02-11T21:51:32.225Z,17.63
2023-02-11T21:54:01.907Z,17.83
2023-02-11T21:56:32.240Z,18.30
2023-02-11T21:59:00.858Z,16.58
2023-02-11T22:01:32.045Z,16.08
2023-02-11T22:04:00.656Z,15.00
2023-02-11T22:06:31.394Z,16.08
2023-02-11T22:09:03.205Z,16.45
2023-02-11T22:11:31.678Z,15.68
2023-02-11T22:13:59.963Z,15.90
2023-02-11T22:16:28.963Z,15.40
2023-02-11T22:19:02.819Z,15.35
2023-02-11T22:21:31.166Z,15.32
2023-02-11T22:23:59.060Z,15.45
2023-02-11T22:26:28.219Z,15.45
2023-02-11T22:28:56.856Z,15.50
2023-02-11T22:31:30.111Z,15.30
2023-02-11T22:33:59.651Z,14.27
2023-02-11T22:36:33.452Z,14.73
2023-02-11T22:39:03.203Z,15.30
2023-02-11T22:41:32.055Z,15.75
2023-02-11T22:43:59.850Z,16.30
2023-02-11T22:46:28.638Z,15.38
2023-02-11T22:48:57.038Z,15.85
2023-02-11T22:51:27.288Z,15.68
2023-02-11T22:54:00.485Z,15.73
2023-02-11T22:56:30.531Z,17.15
2023-02-11T22:59:04.142Z,15.32
2023-02-11T23:01:34.204Z,16.50
2023-02-11T23:04:04.347Z,16.63
2023-02-11T23:06:33.027Z,16.77
2023-02-11T23:09:02.996Z,18.13
2023-02-11T23:11:32.677Z,17.23
2023-02-11T23:14:02.634Z,17.73
2023-02-11T23:16:33.529Z,18.13
2023-02-11T23:19:04.627Z,17.23
2023-02-11T23:21:34.616Z,17.15
2023-02-11T23:24:06.674Z,17.88
2023-02-11T23:26:35.687Z,16.83
2023-02-11T23:29:03.968Z,18.35
2023-02-11T23:31:34.481Z,18.17
2023-02-11T23:34:02.490Z,16.65
2023-02-11T23:36:31.108Z,17.58
2023-02-11T23:38:58.944Z,17.88
2023-02-11T23:41:27.513Z,17.45
2023-02-11T23:43:57.535Z,17.00
2023-02-11T23:46:27.151Z,18.33
2023-02-11T23:48:56.307Z,18.00
2023-02-11T23:51:24.783Z,18.30
2023-02-11T23:53:55.022Z,17.77
2023-02-11T23:56:26.208Z,18.05
2023-02-11T23:58:55.903Z,18.85
